createdAt,value
2023-05-10T00:08:07.268Z,15.63
2023-05-10T00:18:11.001Z,15.40
2023-05-10T00:28:13.416Z,15.29
2023-05-10T00:38:17.565Z,15.31
2023-05-10T00:48:20.109Z,15.28
2023-05-10T00:58:24.903Z,15.35
2023-05-10T01:08:27.645Z,15.33
2023-05-10T01:18:32.719Z,15.05
2023-05-10T01:28:49.972Z,15.07
2023-05-10T01:38:54.930Z,14.95
2023-05-10T01:48:59.659Z,15.15
2023-05-10T01:59:07.809Z,14.92
2023-05-10T02:09:10.999Z,14.84
2023-05-10T02:19:16.089Z,14.92
2023-05-10T02:29:19.060Z,14.93
2023-05-10T02:39:23.292Z,14.85
2023-05-10T02:49:25.663Z,14.73
2023-05-10T02:59:29.371Z,14.66
2023-05-10T03:09:32.192Z,14.56
2023-05-10T03:19:41.765Z,14.67
2023-05-10T03:29:45.409Z,14.73
2023-05-10T03:39:49.163Z,14.80
2023-05-10T03:49:51.506Z,14.80
2023-05-10T03:59:55.361Z,14.83
2023-05-10T04:09:57.721Z,14.81
2023-05-10T04:20:01.462Z,14.84
2023-05-10T04:30:03.902Z,14.77
2023-05-10T04:40:08.660Z,14.74
2023-05-10T04:50:11.690Z,14.41
2023-05-10T05:00:16.211Z,14.66
2023-05-10T05:10:18.891Z,14.67
2023-05-10T05:20:23.003Z,14.58
2023-05-10T05:30:25.339Z,14.49
2023-05-10T05:40:29.042Z,14.34
2023-05-10T05:50:31.481Z,14.28
2023-05-10T06:00:35.307Z,14.47
2023-05-10T06:10:37.777Z,14.62
2023-05-10T06:20:42.835Z,14.60
2023-05-10T06:30:45.420Z,14.64
2023-05-10T06:40:49.260Z,14.60
2023-05-10T06:50:51.600Z,14.80
2023-05-10T07:00:55.308Z,14.71
2023-05-10T07:11:01.355Z,14.63
2023-05-10T07:21:05.251Z,14.73
2023-05-10T07:31:07.829Z,14.64
2023-05-10T07:41:11.642Z,14.91
2023-05-10T07:51:14.289Z,14.80
2023-05-10T08:01:18.025Z,14.81
2023-05-10T08:11:21.437Z,14.98
2023-05-10T08:21:25.463Z,15.07
2023-05-10T08:31:27.892Z,15.43
2023-05-10T08:41:32.008Z,15.45
2023-05-10T08:51:37.632Z,15.61
2023-05-10T09:01:42.294Z,15.49
2023-05-10T09:11:44.773Z,15.56
2023-05-10T09:21:48.465Z,15.49
2023-05-10T09:31:53.025Z,15.88
2023-05-10T09:41:56.922Z,15.93
2023-05-10T09:52:03.595Z,16.29
2023-05-10T10:02:07.831Z,16.46
2023-05-10T10:12:10.466Z,16.74
2023-05-10T10:22:14.187Z,15.96
2023-05-10T10:32:22.531Z,16.38
2023-05-10T10:42:47.817Z,16.51
2023-05-10T10:52:53.029Z,16.19
2023-05-10T11:02:58.495Z,15.62
2023-05-10T11:13:02.773Z,15.72
2023-05-10T11:23:16.701Z,15.69
2023-05-10T11:33:20.357Z,14.99
2023-05-10T11:43:29.126Z,14.99
2023-05-10T11:53:31.981Z,14.83
2023-05-10T12:03:36.203Z,15.08
2023-05-10T12:13:39.925Z,15.48
2023-05-10T12:23:47.239Z,15.63
2023-05-10T12:33:50.294Z,15.64
2023-05-10T12:43:54.018Z,15.34
2023-05-10T12:53:56.629Z,15.66
2023-05-10T13:04:01.038Z,15.84
2023-05-10T13:14:04.124Z,16.16
2023-05-10T13:24:07.862Z,16.14
2023-05-10T13:34:10.332Z,16.41
2023-05-10T13:44:15.574Z,16.24
2023-05-10T13:54:20.306Z,16.37
2023-05-10T14:04:23.984Z,16.06
2023-05-10T14:14:26.355Z,16.20
2023-05-10T14:24:30.079Z,16.38
2023-05-10T14:34:32.492Z,16.58
2023-05-10T14:44:36.388Z,16.47
2023-05-10T14:54:39.571Z,16.54
2023-05-10T15:04:43.285Z,16.72
2023-05-10T15:14:46.180Z,16.52
2023-05-10T15:24:49.928Z,16.75
2023-05-10T15:34:52.380Z,16.82
2023-05-10T15:44:56.138Z,16.78
2023-05-10T15:54:58.513Z,16.62
2023-05-10T16:05:02.201Z,16.53
2023-05-10T16:15:05.078Z,16.32
2023-05-10T16:25:10.215Z,15.89
2023-05-10T16:35:14.100Z,16.02
2023-05-10T16:45:18.178Z,15.50
2023-05-10T16:55:20.891Z,15.71
2023-05-10T17:05:24.628Z,15.85
2023-05-10T17:15:27.069Z,15.32
2023-05-10T17:25:30.803Z,15.33
2023-05-10T17:35:33.302Z,15.20
2023-05-10T17:45:37.097Z,15.25
2023-05-10T17:55:41.073Z,15.30
2023-05-10T18:05:45.555Z,15.33
2023-05-10T18:15:47.999Z,15.32
2023-05-10T18:25:51.887Z,15.40
2023-05-10T18:35:54.363Z,15.38
2023-05-10T18:45:58.101Z,15.10
2023-05-10T18:56:00.556Z,15.03
2023-05-10T19:06:04.307Z,15.03
2023-05-10T19:16:07.097Z,14.90
2023-05-10T19:26:12.291Z,14.69
2023-05-10T19:36:14.689Z,14.53
2023-05-10T19:46:20.130Z,14.59
2023-05-10T19:56:22.737Z,14.63
2023-05-10T20:06:27.345Z,14.68
2023-05-10T20:16:29.747Z,14.75
2023-05-10T20:26:33.917Z,14.44
2023-05-10T20:36:37.382Z,14.56
2023-05-10T20:46:41.289Z,14.38
2023-05-10T20:56:43.900Z,14.27
2023-05-10T21:06:47.752Z,14.69
2023-05-10T21:16:51.170Z,14.66
2023-05-10T21:26:55.026Z,14.56
2023-05-10T21:36:57.443Z,14.34
2023-05-10T21:47:01.153Z,14.07
2023-05-10T21:57:03.618Z,14.26
2023-05-10T22:07:08.939Z,14.15
2023-05-10T22:17:11.862Z,14.01
2023-05-10T22:27:15.671Z,14.05
2023-05-10T22:37:18.140Z,13.91
2023-05-10T22:47:21.887Z,13.86
2023-05-10T22:57:24.482Z,13.89
2023-05-10T23:07:28.233Z,13.76
2023-05-10T23:17:30.632Z,13.74
2023-05-10T23:27:34.570Z,13.75
2023-05-10T23:37:37.587Z,13.68
2023-05-10T23:47:41.417Z,13.52
2023-05-10T23:57:43.924Z,13.61
